Hopkins, MI (49328)

3:34 PM EDT on April 27, 2015 (GMT -0400)
KMIHOPKI2 | | Change Station
CLOSE
Current Station
Personal Weather Station
Location: Hopkins, MI
Elevation: 732 ft
Nearby Weather Stations

Elev 732 ft 42.64 °N, 85.68 °W | Updated 13 seconds ago

Overcast
Overcast
51.2 °F
Feels Like 51.2 °F
N
6.0
Wind Variable Wind from North
Gusts 8.0 mph

Today
High -- | Low -- °F
--% Chance of Precip.
Yesterday
High -- | Low -- °F
Precip. -- in
6:43 AM 8:38 PM
Waxing Gibbous, 67% visible
Pressure 30.10 in
Visibility 10.0 miles
Clouds Overcast 4700 ft
Dew Point 38 °F
Humidity 61%
Rainfall 0.00 in
Snow Depth Not available.
UV 3 out of 12
Pollen 10.90 out of 12
Air Quality Not available.
Flu Activity Regional
METAR KBIV 271853Z AUTO 30009G17KT 280V340 10SM OVC047 09/02 A3009 RMK AO2 SLP193 T00940017

More Conditions Fewer Conditions

Pressure 30.10 in
Visibility 10.0 miles
Clouds Overcast 4700 ft
Dew Point 38 °F
Humidity 61%
Rainfall 0.00 in
Snow Depth Not available.
UV 3 out of 12
Pollen 10.90 out of 12
Air Quality Not available.
Flu Activity Regional
METAR KBIV 271853Z AUTO 30009G17KT 280V340 10SM OVC047 09/02 A3009 RMK AO2 SLP193 T00940017

More Conditions Fewer Conditions

10-Day Weather Forecast

Almanac

Astronomy

Apr. 27, 2015 Rise Set
Actual Time
Civil Twilight
Nautical Twilight
Astronomical Twilight
Moon
Length of Visible Light
Length of Day
Tomorrow will be .
, % of the Moon is Illuminated

Today's Extremes

State Highs State Lows

Community

WunderPhotos

Upload Photos

1,817,413 photos uploaded!

WunderBlogs® & News

Nearby

Air Quality

  Air Quality AQ Index Pollutant
Not available.

Snow Depth

Station Depth Elevation

Earthquake Activity

City Distance Mag. Time & Date
Minimum magnitude displayed is 2.5.

Coastal Water Temperatures

Place Temperature

Stations

Nearby Weather Stations

Station Location Temp. Windchill Dew Point Humidity Wind Precip. Elev Updated Type